• Join FlightAware (Why Join?)
  • Login
  • US Flag 
12:23AM EST


 

Airport Tracker/Info


-or-


 

Live Flight TrackerFlight Track Log ✈ DAL1349 ✈ 22-Apr-2013 ✈ KCRW - KATL

Flight Track Log - Related Links

Times and Time Zones

All times are in EDT time to prevent confusion due to time zone crossing. See the DAL1349 flight status page for this flight to view local times or setup timezone preferences in your user account.

Time Position Orientation Groundspeed Altitude Reporting Facility
EDT Latitude Longitude Course Direction KTS MPH feet Rate Location/Type
07:15AM 38.3981 -81.5342 207° Southwest 173 199 3,300  Level Indianapolis Center
07:16AM 38.3392 -81.5158 166° South 258 297 5,700 3,000 Climbing Indianapolis Center
07:17AM 38.0868 -81.7483 202° Southwest  Level FlightAware Approximate
07:17AM 38.2722 -81.5681 211° Southwest 280 322 9,500  Level Indianapolis Center
07:18AM 37.9903 -81.7980 204° Southwest  Level FlightAware Approximate
07:18AM 38.1967 -81.6144 206° Southwest 299 344 12,100  Level Indianapolis Center
07:19AM 37.8948 -81.8511 204° Southwest  Level FlightAware Approximate
07:19AM 38.1081 -81.6694 206° Southwest 348 400 15,200  Level Indianapolis Center
07:20AM 37.8058 -81.9059 207° Southwest  Level FlightAware Approximate
07:20AM 38.0169 -81.7253 206° Southwest 361 415 17,800  Level Indianapolis Center
07:21AM 37.9219 -81.7831 206° Southwest 374 430 20,500 2,400 Climbing Indianapolis Center
07:22AM 37.8197 -81.8461 206° Southwest 388 447 22,700 1,920 Climbing Indianapolis Center
07:23AM 37.7194 -81.9083 206° Southwest 398 458 24,500 1,800 Climbing Indianapolis Center
07:24AM 37.6169 -81.9692 205° Southwest 404 465 26,400 1,860 Climbing Indianapolis Center
07:25AM 37.5117 -82.0342 206° Southwest 417 480 28,400 1,740 Climbing Indianapolis Center
07:26AM 37.3883 -82.1086 206° Southwest 421 484 30,000 1,500 Climbing Indianapolis Center
07:27AM 37.2972 -82.1631 205° Southwest 420 483 31,500 1,560 Climbing Atlanta Center
07:28AM 37.1897 -82.2281 206° Southwest 420 483 33,200 1,740 Climbing Atlanta Center
07:29AM 37.0883 -82.2903 206° Southwest 420 483 35,000 1,320 Climbing Atlanta Center
07:30AM 36.9872 -82.3497 205° Southwest 415 478 35,900 480 Climbing Atlanta Center
07:31AM 36.8836 -82.4089 205° Southwest 409 471 36,000  Climbing Atlanta Center
07:32AM 36.7781 -82.4733 206° Southwest 414 476 36,000  Level Atlanta Center
07:33AM 36.6747 -82.5322 205° Southwest 414 476 36,000  Level Atlanta Center
07:34AM 36.5628 -82.6017 206° Southwest 414 476 36,000  Level Atlanta Center
07:35AM 36.4572 -82.6631 205° Southwest 419 482 36,000  Level Atlanta Center
07:36AM 36.3558 -82.7214 205° Southwest 419 482 36,000  Level Atlanta Center
07:37AM 36.2519 -82.7822 205° Southwest 419 482 36,000  Level Atlanta Center
07:38AM 36.1464 -82.8431 205° Southwest 419 482 36,000  Level Atlanta Center
07:39AM 36.0425 -82.9064 206° Southwest 419 482 36,000 -300 Level Atlanta Center
07:40AM 35.9347 -82.9667 204° Southwest 419 482 35,500 -540 Descending Atlanta Center
07:41AM 35.8308 -83.0297 206° Southwest 419 482 35,000 -300 Descending Atlanta Center
07:42AM 35.7250 -83.0794 201° Southwest 419 482 35,000 -240 Level Atlanta Center
07:43AM 35.6147 -83.1344 202° Southwest 419 482 34,600 -660 Descending Atlanta Center
07:44AM 35.5067 -83.1817 200° South 419 482 33,700 -960 Descending Atlanta Center
07:45AM 35.4006 -83.2336 202° Southwest 419 482 32,700 -1,020 Descending Atlanta Center
07:46AM 35.2925 -83.2856 201° Southwest 419 482 31,700 -900 Descending Atlanta Center
07:47AM 35.1842 -83.3375 201° Southwest 419 482 31,000 -660 Descending Atlanta Center
07:48AM 35.0761 -83.3864 200° South 419 482 30,400 -840 Descending Atlanta Center
07:49AM 34.9636 -83.4431 202° Southwest 424 488 29,400 -1,020 Descending Atlanta Center
07:50AM 34.8492 -83.4972 201° Southwest 435 501 28,400 -1,020 Descending Atlanta Center
07:51AM 34.7367 -83.5483 200° South 435 501 27,400 -960 Descending Atlanta Center
07:52AM 34.6367 -83.5919 200° South 428 493 26,500 -960 Descending Atlanta Center
07:53AM 34.5219 -83.6431 200° South 433 498 25,500 -1,560 Descending Atlanta Center
07:54AM 34.4136 -83.6939 201° Southwest 425 489 23,400 -2,700 Descending Atlanta Center
07:55AM 34.3072 -83.7444 201° Southwest 425 489 20,200 -3,000 Descending Atlanta Center
07:56AM 34.2053 -83.7928 201° Southwest 406 467 17,400 -2,880 Descending Atlanta Center
07:57AM 34.0947 -83.8431 201° Southwest 391 450 14,500 -2,580 Descending Atlanta Center
07:58AM 34.0156 -83.9186 218° Southwest 372 428 12,300 -1,200 Descending Atlanta Center
07:59AM 33.9383 -84.0011 222° Southwest 372 428 12,100 -120 Descending Atlanta Center
08:00AM 33.8611 -84.0864 223° Southwest 378 435 12,100  Level Atlanta Center
08:01AM 33.7858 -84.1414 211° Southwest 351 404 12,100 -60 Level Atlanta Center
08:02AM 33.7333 -84.2000 223° Southwest 246 283 12,000 -120 Descending Atlanta TRACON
08:03AM 33.7333 -84.2833 270° West 235 270 11,900 -780 Descending Atlanta TRACON
08:04AM 33.7333 -84.3500 270° West 240 276 10,500 -1,680 Descending Atlanta TRACON
08:05AM 33.7333 -84.4333 270° West 243 280 8,800 -1,740 Descending Atlanta TRACON
08:06AM 33.7333 -84.5000 270° West 230 265 7,300 -1,560 Descending Atlanta TRACON
08:07AM 33.7333 -84.5833 270° West 228 262 5,900 -1,740 Descending Atlanta TRACON
08:08AM 33.7333 -84.6500 270° West 241 277 4,000 -960 Descending Atlanta TRACON
08:09AM 33.7167 -84.7333 257° West 229 264 4,000  Level Atlanta TRACON
08:10AM 33.6833 -84.7333 180° South 179 206 4,000  Level Atlanta TRACON
08:11AM 33.6667 -84.6833 112° Southeast 155 178 4,000  Level Atlanta TRACON
08:12AM 33.6500 -84.6500 121° Southeast 151 174 4,000 -240 Level Atlanta TRACON
08:13AM 33.6500 -84.6000 90° East 152 175 3,600 -600 Descending Atlanta TRACON
08:14AM 33.6500 -84.5500 90° East 130 150 2,900 -720 Descending Atlanta TRACON